sensor_id;sensor_type;location;lat;lon;timestamp;pressure;altitude;pressure_sealevel;temperature;humidity
38466;BME280;24244;51.950;5.902;2022-09-04T00:00:23;101284.91;;;19.96;57.99
38466;BME280;24244;51.950;5.902;2022-09-04T00:03:01;101289.72;;;19.93;58.41
38466;BME280;24244;51.950;5.902;2022-09-04T00:05:31;101288.06;;;19.92;58.43
38466;BME280;24244;51.950;5.902;2022-09-04T00:08:17;101298.25;;;19.90;58.77
38466;BME280;24244;51.950;5.902;2022-09-04T00:10:51;101297.69;;;19.88;58.62
38466;BME280;24244;51.950;5.902;2022-09-04T00:13:20;101297.09;;;19.86;58.74
38466;BME280;24244;51.950;5.902;2022-09-04T00:15:51;101302.94;;;19.83;58.87
38466;BME280;24244;51.950;5.902;2022-09-04T00:18:25;101303.19;;;19.82;58.97
38466;BME280;24244;51.950;5.902;2022-09-04T00:20:59;101305.06;;;19.81;59.20
38466;BME280;24244;51.950;5.902;2022-09-04T00:23:29;101316.31;;;19.78;59.41
38466;BME280;24244;51.950;5.902;2022-09-04T00:26:02;101306.59;;;19.77;59.51
38466;BME280;24244;51.950;5.902;2022-09-04T00:28:34;101307.63;;;19.76;59.64
38466;BME280;24244;51.950;5.902;2022-09-04T00:31:11;101307.06;;;19.74;59.72
38466;BME280;24244;51.950;5.902;2022-09-04T00:33:44;101306.47;;;19.72;60.06
38466;BME280;24244;51.950;5.902;2022-09-04T00:36:18;101308.56;;;19.70;60.10
38466;BME280;24244;51.950;5.902;2022-09-04T00:38:48;101309.63;;;19.69;60.32
38466;BME280;24244;51.950;5.902;2022-09-04T00:41:24;101315.84;;;19.70;60.59
38466;BME280;24244;51.950;5.902;2022-09-04T00:44:03;101311.75;;;19.67;60.89
38466;BME280;24244;51.950;5.902;2022-09-04T00:46:50;101320.88;;;19.66;60.99
38466;BME280;24244;51.950;5.902;2022-09-04T00:49:30;101327.94;;;19.67;61.06
38466;BME280;24244;51.950;5.902;2022-09-04T00:52:07;101328.16;;;19.66;61.38
38466;BME280;24244;51.950;5.902;2022-09-04T00:54:48;101329.22;;;19.65;61.46
38466;BME280;24244;51.950;5.902;2022-09-04T01:00:34;101332.63;;;19.60;61.44
38466;BME280;24244;51.950;5.902;2022-09-04T01:03:15;101329.31;;;19.58;61.72
38466;BME280;24244;51.950;5.902;2022-09-04T01:06:07;101335.97;;;19.55;62.20
38466;BME280;24244;51.950;5.902;2022-09-04T01:08:56;101342.44;;;19.54;61.95
38466;BME280;24244;51.950;5.902;2022-09-04T01:11:35;101343.72;;;19.52;62.40
38466;BME280;24244;51.950;5.902;2022-09-04T01:14:10;101347.00;;;19.54;62.58
38466;BME280;24244;51.950;5.902;2022-09-04T01:16:44;101353.22;;;19.54;62.60
38466;BME280;24244;51.950;5.902;2022-09-04T01:19:24;101347.00;;;19.54;62.79
38466;BME280;24244;51.950;5.902;2022-09-04T01:22:16;101344.06;;;19.55;62.95
38466;BME280;24244;51.950;5.902;2022-09-04T01:25:14;101350.78;;;19.53;62.94
38466;BME280;24244;51.950;5.902;2022-09-04T01:27:54;101351.81;;;19.52;63.19
38466;BME280;24244;51.950;5.902;2022-09-04T01:30:23;101358.88;;;19.53;63.01
38466;BME280;24244;51.950;5.902;2022-09-04T01:32:58;101357.56;;;19.55;63.17
38466;BME280;24244;51.950;5.902;2022-09-04T01:35:32;101355.69;;;19.56;63.21
38466;BME280;24244;51.950;5.902;2022-09-04T01:38:05;101360.03;;;19.57;63.33
38466;BME280;24244;51.950;5.902;2022-09-04T01:40:37;101360.84;;;19.58;63.33
38466;BME280;24244;51.950;5.902;2022-09-04T01:43:08;101367.28;;;19.57;63.43
38466;BME280;24244;51.950;5.902;2022-09-04T01:46:12;101371.03;;;19.55;63.71
38466;BME280;24244;51.950;5.902;2022-09-04T01:48:46;101373.97;;;19.54;63.73
38466;BME280;24244;51.950;5.902;2022-09-04T01:51:22;101375.25;;;19.51;63.82
38466;BME280;24244;51.950;5.902;2022-09-04T01:53:56;101369.50;;;19.48;63.92
38466;BME280;24244;51.950;5.902;2022-09-04T01:56:34;101376.97;;;19.46;64.03
38466;BME280;24244;51.950;5.902;2022-09-04T01:59:10;101377.66;;;19.41;64.29
38466;BME280;24244;51.950;5.902;2022-09-04T02:01:45;101376.25;;;19.39;64.58
38466;BME280;24244;51.950;5.902;2022-09-04T02:04:16;101388.09;;;19.38;64.54
38466;BME280;24244;51.950;5.902;2022-09-04T02:06:51;101381.25;;;19.35;64.47
38466;BME280;24244;51.950;5.902;2022-09-04T02:09:32;101385.22;;;19.33;64.70
38466;BME280;24244;51.950;5.902;2022-09-04T02:12:07;101391.31;;;19.28;64.90
38466;BME280;24244;51.950;5.902;2022-09-04T02:14:41;101391.53;;;19.27;64.85
38466;BME280;24244;51.950;5.902;2022-09-04T02:17:12;101390.97;;;19.25;64.90
38466;BME280;24244;51.950;5.902;2022-09-04T02:19:57;101392.84;;;19.24;65.29
38466;BME280;24244;51.950;5.902;2022-09-04T02:22:29;101396.81;;;19.22;65.12
38466;BME280;24244;51.950;5.902;2022-09-04T02:25:06;101394.53;;;19.18;65.26
38466;BME280;24244;51.950;5.902;2022-09-04T02:27:41;101389.63;;;19.15;65.48
38466;BME280;24244;51.950;5.902;2022-09-04T02:30:13;101397.09;;;19.13;65.47
38466;BME280;24244;51.950;5.902;2022-09-04T02:32:47;101401.88;;;19.11;65.63
38466;BME280;24244;51.950;5.902;2022-09-04T02:35:21;101389.72;;;19.09;65.80
38466;BME280;24244;51.950;5.902;2022-09-04T02:37:57;101392.63;;;19.07;65.74
38466;BME280;24244;51.950;5.902;2022-09-04T02:40:29;101395.53;;;19.06;65.94
38466;BME280;24244;51.950;5.902;2022-09-04T02:43:14;101399.53;;;19.03;66.03
38466;BME280;24244;51.950;5.902;2022-09-04T02:45:50;101399.75;;;19.02;66.09
38466;BME280;24244;51.950;5.902;2022-09-04T02:48:25;101396.44;;;19.00;66.06
38466;BME280;24244;51.950;5.902;2022-09-04T02:51:07;101392.94;;;18.99;66.21
38466;BME280;24244;51.950;5.902;2022-09-04T02:53:42;101392.31;;;18.97;66.13
38466;BME280;24244;51.950;5.902;2022-09-04T02:56:20;101407.69;;;18.97;66.35
38466;BME280;24244;51.950;5.902;2022-09-04T02:58:55;101401.50;;;18.96;66.42
38466;BME280;24244;51.950;5.902;2022-09-04T03:01:33;101396.94;;;18.97;66.45
38466;BME280;24244;51.950;5.902;2022-09-04T03:04:07;101404.41;;;18.95;66.50
38466;BME280;24244;51.950;5.902;2022-09-04T03:06:46;101401.09;;;18.93;66.73
38466;BME280;24244;51.950;5.902;2022-09-04T03:09:16;101405.06;;;18.90;66.77
38466;BME280;24244;51.950;5.902;2022-09-04T03:11:48;101409.03;;;18.88;66.79
38466;BME280;24244;51.950;5.902;2022-09-04T03:14:19;101414.03;;;18.84;66.98
38466;BME280;24244;51.950;5.902;2022-09-04T03:16:55;101415.09;;;18.83;67.08
38466;BME280;24244;51.950;5.902;2022-09-04T03:19:47;101422.38;;;18.83;67.20
38466;BME280;24244;51.950;5.902;2022-09-04T03:22:18;101430.06;;;18.79;67.19
38466;BME280;24244;51.950;5.902;2022-09-04T03:25:02;101428.63;;;18.76;67.32
38466;BME280;24244;51.950;5.902;2022-09-04T03:27:31;101432.63;;;18.74;67.45
38466;BME280;24244;51.950;5.902;2022-09-04T03:30:01;101428.47;;;18.71;67.28
38466;BME280;24244;51.950;5.902;2022-09-04T03:32:34;101430.81;;;18.68;67.41
38466;BME280;24244;51.950;5.902;2022-09-04T03:35:07;101425.88;;;18.65;67.41
38466;BME280;24244;51.950;5.902;2022-09-04T03:37:55;101431.94;;;18.60;67.61
38466;BME280;24244;51.950;5.902;2022-09-04T03:40:34;101432.97;;;18.59;67.59
38466;BME280;24244;51.950;5.902;2022-09-04T03:43:22;101435.88;;;18.58;67.88
38466;BME280;24244;51.950;5.902;2022-09-04T03:45:57;101433.41;;;18.56;67.90
38466;BME280;24244;51.950;5.902;2022-09-04T03:48:38;101434.03;;;18.52;68.11
38466;BME280;24244;51.950;5.902;2022-09-04T03:51:13;101438.81;;;18.50;68.10
38466;BME280;24244;51.950;5.902;2022-09-04T03:53:43;101432.59;;;18.49;67.98
38466;BME280;24244;51.950;5.902;2022-09-04T04:35:39;101465.09;;;18.29;68.88
38466;BME280;24244;51.950;5.902;2022-09-04T04:38:18;101473.16;;;18.29;68.97
38466;BME280;24244;51.950;5.902;2022-09-04T04:41:12;101475.25;;;18.27;69.20
38466;BME280;24244;51.950;5.902;2022-09-04T04:43:52;101480.63;;;18.27;69.12
38466;BME280;24244;51.950;5.902;2022-09-04T04:46:30;101476.28;;;18.26;69.26
38466;BME280;24244;51.950;5.902;2022-09-04T04:49:31;101472.81;;;18.26;69.44
38466;BME280;24244;51.950;5.902;2022-09-04T04:52:17;101478.41;;;18.24;69.46
38466;BME280;24244;51.950;5.902;2022-09-04T04:54:56;101478.41;;;18.24;69.44
38466;BME280;24244;51.950;5.902;2022-09-04T04:57:37;101479.44;;;18.23;69.51
38466;BME280;24244;51.950;5.902;2022-09-04T05:00:09;101486.69;;;18.23;69.60
38466;BME280;24244;51.950;5.902;2022-09-04T05:02:41;101491.25;;;18.22;69.64
38466;BME280;24244;51.950;5.902;2022-09-04T05:05:18;101493.31;;;18.20;69.63
38466;BME280;24244;51.950;5.902;2022-09-04T05:07:54;101492.72;;;18.18;69.86
38466;BME280;24244;51.950;5.902;2022-09-04T05:10:29;101498.94;;;18.19;70.05
38466;BME280;24244;51.950;5.902;2022-09-04T05:13:08;101507.22;;;18.17;69.95
38466;BME280;24244;51.950;5.902;2022-09-04T05:15:41;101502.88;;;18.16;70.01
38466;BME280;24244;51.950;5.902;2022-09-04T05:18:15;101509.91;;;18.17;70.14
38466;BME280;24244;51.950;5.902;2022-09-04T05:20:48;101496.66;;;18.16;70.10
38466;BME280;24244;51.950;5.902;2022-09-04T05:23:23;101510.13;;;18.16;70.43
38466;BME280;24244;51.950;5.902;2022-09-04T05:25:58;101516.13;;;18.18;70.46
38466;BME280;24244;51.950;5.902;2022-09-04T05:28:31;101518.81;;;18.18;70.42
38466;BME280;24244;51.950;5.902;2022-09-04T05:31:08;101518.56;;;18.19;70.74
38466;BME280;24244;51.950;5.902;2022-09-04T05:33:40;101528.91;;;18.22;70.60
38466;BME280;24244;51.950;5.902;2022-09-04T05:36:14;101537.41;;;18.26;70.80
38466;BME280;24244;51.950;5.902;2022-09-04T05:38:49;101529.06;;;18.27;70.56
38466;BME280;24244;51.950;5.902;2022-09-04T05:41:32;101533.41;;;18.28;70.89
38466;BME280;24244;51.950;5.902;2022-09-04T05:44:13;101535.91;;;18.30;70.80
38466;BME280;24244;51.950;5.902;2022-09-04T05:46:47;101543.56;;;18.33;70.69
38466;BME280;24244;51.950;5.902;2022-09-04T05:49:23;101552.22;;;18.35;70.76
38466;BME280;24244;51.950;5.902;2022-09-04T05:52:16;101553.66;;;18.37;71.00
38466;BME280;24244;51.950;5.902;2022-09-04T05:55:14;101552.41;;;18.40;71.05
38466;BME280;24244;51.950;5.902;2022-09-04T05:57:55;101546.78;;;18.42;71.05
38466;BME280;24244;51.950;5.902;2022-09-04T06:00:30;101551.94;;;18.43;70.97
38466;BME280;24244;51.950;5.902;2022-09-04T06:03:19;101555.25;;;18.45;71.03
38466;BME280;24244;51.950;5.902;2022-09-04T06:06:15;101569.34;;;18.47;71.02
38466;BME280;24244;51.950;5.902;2022-09-04T06:15:00;101573.84;;;18.53;71.01
38466;BME280;24244;51.950;5.902;2022-09-04T06:17:49;101572.38;;;18.57;71.25
38466;BME280;24244;51.950;5.902;2022-09-04T06:20:36;101568.44;;;18.60;71.18
38466;BME280;24244;51.950;5.902;2022-09-04T06:23:35;101564.25;;;18.64;71.31
38466;BME280;24244;51.950;5.902;2022-09-04T06:26:14;101565.47;;;18.68;71.24
38466;BME280;24244;51.950;5.902;2022-09-04T06:29:13;101576.41;;;18.73;71.33
38466;BME280;24244;51.950;5.902;2022-09-04T06:31:52;101573.25;;;18.76;71.29
38466;BME280;24244;51.950;5.902;2022-09-04T06:34:30;101570.97;;;18.80;71.07
38466;BME280;24244;51.950;5.902;2022-09-04T06:37:08;101574.84;;;18.84;71.02
38466;BME280;24244;51.950;5.902;2022-09-04T06:39:48;101581.25;;;18.89;71.29
38466;BME280;24244;51.950;5.902;2022-09-04T06:42:25;101585.13;;;18.93;71.20
38466;BME280;24244;51.950;5.902;2022-09-04T06:45:07;101581.75;;;18.98;70.81
38466;BME280;24244;51.950;5.902;2022-09-04T06:47:44;101585.47;;;19.03;70.65
38466;BME280;24244;51.950;5.902;2022-09-04T06:50:20;101585.84;;;19.07;70.54
38466;BME280;24244;51.950;5.902;2022-09-04T06:52:57;101588.69;;;19.12;70.66
38466;BME280;24244;51.950;5.902;2022-09-04T06:55:28;101592.59;;;19.16;70.35
38466;BME280;24244;51.950;5.902;2022-09-04T06:58:16;101593.34;;;19.23;70.27
38466;BME280;24244;51.950;5.902;2022-09-04T07:00:47;101595.16;;;19.29;69.98
38466;BME280;24244;51.950;5.902;2022-09-04T07:03:36;101598.59;;;19.36;69.59
38466;BME280;24244;51.950;5.902;2022-09-04T07:06:10;101594.19;;;19.42;69.63
38466;BME280;24244;51.950;5.902;2022-09-04T07:08:55;101591.66;;;19.47;69.83
38466;BME280;24244;51.950;5.902;2022-09-04T07:11:32;101591.81;;;19.52;69.86
38466;BME280;24244;51.950;5.902;2022-09-04T07:14:15;101592.78;;;19.58;69.87
38466;BME280;24244;51.950;5.902;2022-09-04T07:17:07;101598.09;;;19.64;69.77
38466;BME280;24244;51.950;5.902;2022-09-04T07:20:07;101598.25;;;19.69;69.70
38466;BME280;24244;51.950;5.902;2022-09-04T07:25:23;101607.09;;;19.76;69.13
38466;BME280;24244;51.950;5.902;2022-09-04T07:28:17;101609.94;;;19.81;69.15
38466;BME280;24244;51.950;5.902;2022-09-04T07:30:51;101609.25;;;19.86;69.16
38466;BME280;24244;51.950;5.902;2022-09-04T07:33:24;101615.00;;;19.89;69.20
38466;BME280;24244;51.950;5.902;2022-09-04T07:35:56;101616.00;;;19.95;69.25
38466;BME280;24244;51.950;5.902;2022-09-04T07:38:31;101612.63;;;20.00;69.24
38466;BME280;24244;51.950;5.902;2022-09-04T07:41:05;101616.50;;;20.04;69.13
38466;BME280;24244;51.950;5.902;2022-09-04T07:43:38;101622.88;;;20.09;69.38
38466;BME280;24244;51.950;5.902;2022-09-04T07:46:10;101615.13;;;20.13;69.36
38466;BME280;24244;51.950;5.902;2022-09-04T07:48:41;101624.19;;;20.18;68.94
38466;BME280;24244;51.950;5.902;2022-09-04T07:51:12;101628.09;;;20.22;68.89
38466;BME280;24244;51.950;5.902;2022-09-04T07:53:56;101617.66;;;20.26;68.50
38466;BME280;24244;51.950;5.902;2022-09-04T07:56:37;101630.22;;;20.32;68.50
38466;BME280;24244;51.950;5.902;2022-09-04T07:59:27;101629.59;;;20.37;68.52
38466;BME280;24244;51.950;5.902;2022-09-04T08:02:05;101631.59;;;20.41;68.65
38466;BME280;24244;51.950;5.902;2022-09-04T08:05:01;101630.66;;;20.47;68.26
38466;BME280;24244;51.950;5.902;2022-09-04T08:07:51;101629.72;;;20.53;68.19
38466;BME280;24244;51.950;5.902;2022-09-04T08:10:31;101633.41;;;20.59;68.29
38466;BME280;24244;51.950;5.902;2022-09-04T08:13:18;101640.13;;;20.68;68.85
38466;BME280;24244;51.950;5.902;2022-09-04T08:15:57;101633.56;;;20.76;68.47
38466;BME280;24244;51.950;5.902;2022-09-04T08:18:45;101646.50;;;20.85;68.14
38466;BME280;24244;51.950;5.902;2022-09-04T08:21:24;101645.78;;;20.90;68.00
38466;BME280;24244;51.950;5.902;2022-09-04T08:24:16;101651.09;;;20.96;67.81
38466;BME280;24244;51.950;5.902;2022-09-04T08:26:54;101645.84;;;21.01;66.81
38466;BME280;24244;51.950;5.902;2022-09-04T08:29:41;101647.59;;;21.07;66.55
38466;BME280;24244;51.950;5.902;2022-09-04T08:32:19;101655.81;;;21.13;66.55
38466;BME280;24244;51.950;5.902;2022-09-04T08:35:03;101651.16;;;21.20;66.82
38466;BME280;24244;51.950;5.902;2022-09-04T08:37:41;101660.19;;;21.25;66.06
38466;BME280;24244;51.950;5.902;2022-09-04T08:40:30;101659.28;;;21.31;65.33
38466;BME280;24244;51.950;5.902;2022-09-04T08:43:26;101660.78;;;21.39;65.82
38466;BME280;24244;51.950;5.902;2022-09-04T08:53:03;101669.25;;;21.66;65.43
38466;BME280;24244;51.950;5.902;2022-09-04T08:55:44;101674.31;;;21.74;65.19
38466;BME280;24244;51.950;5.902;2022-09-04T08:58:27;101663.09;;;21.82;65.27
38466;BME280;24244;51.950;5.902;2022-09-04T09:01:28;101668.13;;;21.90;65.06
38466;BME280;24244;51.950;5.902;2022-09-04T09:04:25;101666.97;;;21.98;65.29
38466;BME280;24244;51.950;5.902;2022-09-04T09:07:28;101664.72;;;22.06;65.02
38466;BME280;24244;51.950;5.902;2022-09-04T09:10:33;101669.75;;;22.14;65.10
38466;BME280;24244;51.950;5.902;2022-09-04T09:13:48;101672.66;;;22.24;65.14
38466;BME280;24244;51.950;5.902;2022-09-04T09:16:23;101663.59;;;22.31;64.39
38466;BME280;24244;51.950;5.902;2022-09-04T09:19:18;101669.41;;;22.39;64.67
38466;BME280;24244;51.950;5.902;2022-09-04T09:22:08;101667.72;;;22.50;64.34
38466;BME280;24244;51.950;5.902;2022-09-04T09:24:50;101665.47;;;22.58;63.93
38466;BME280;24244;51.950;5.902;2022-09-04T09:27:45;101655.03;;;22.67;64.00
38466;BME280;24244;51.950;5.902;2022-09-04T09:30:23;101658.78;;;22.78;63.44
38466;BME280;24244;51.950;5.902;2022-09-04T09:32:59;101658.59;;;22.84;63.46
38466;BME280;24244;51.950;5.902;2022-09-04T09:35:56;101655.50;;;22.92;63.27
38466;BME280;24244;51.950;5.902;2022-09-04T09:44:10;101649.75;;;23.22;62.20
38466;BME280;24244;51.950;5.902;2022-09-04T09:47:01;101646.84;;;23.29;62.07
38466;BME280;24244;51.950;5.902;2022-09-04T09:49:34;101648.03;;;23.38;61.73
38466;BME280;24244;51.950;5.902;2022-09-04T09:52:15;101646.56;;;23.47;61.54
38466;BME280;24244;51.950;5.902;2022-09-04T09:54:54;101650.53;;;23.56;61.09
38466;BME280;24244;51.950;5.902;2022-09-04T09:57:25;101648.44;;;23.63;60.90
38466;BME280;24244;51.950;5.902;2022-09-04T10:00:13;101656.41;;;23.70;60.68
38466;BME280;24244;51.950;5.902;2022-09-04T10:08:19;101661.31;;;23.95;60.09
38466;BME280;24244;51.950;5.902;2022-09-04T10:10:49;101654.63;;;24.02;59.88
38466;BME280;24244;51.950;5.902;2022-09-04T10:16:08;101655.63;;;24.18;59.51
38466;BME280;24244;51.950;5.902;2022-09-04T10:18:50;101661.13;;;24.23;59.21
38466;BME280;24244;51.950;5.902;2022-09-04T10:21:32;101659.03;;;24.30;59.15
38466;BME280;24244;51.950;5.902;2022-09-04T10:24:11;101653.47;;;24.42;58.95
38466;BME280;24244;51.950;5.902;2022-09-04T10:32:10;101652.88;;;24.67;58.27
38466;BME280;24244;51.950;5.902;2022-09-04T10:37:27;101652.78;;;24.83;57.73
38466;BME280;24244;51.950;5.902;2022-09-04T10:39:59;101651.16;;;24.87;57.59
38466;BME280;24244;51.950;5.902;2022-09-04T10:42:50;101649.91;;;24.95;57.48
38466;BME280;24244;51.950;5.902;2022-09-04T10:45:24;101648.34;;;25.04;57.48
38466;BME280;24244;51.950;5.902;2022-09-04T10:48:00;101647.59;;;25.14;56.96
38466;BME280;24244;51.950;5.902;2022-09-04T10:50:52;101650.91;;;25.21;56.73
38466;BME280;24244;51.950;5.902;2022-09-04T10:53:34;101644.16;;;25.28;56.69
38466;BME280;24244;51.950;5.902;2022-09-04T10:56:07;101646.13;;;25.38;56.32
38466;BME280;24244;51.950;5.902;2022-09-04T10:58:46;101652.41;;;25.44;56.23
38466;BME280;24244;51.950;5.902;2022-09-04T11:01:24;101647.81;;;25.49;56.12
38466;BME280;24244;51.950;5.902;2022-09-04T11:03:56;101654.38;;;25.53;56.04
38466;BME280;24244;51.950;5.902;2022-09-04T11:06:36;101656.31;;;25.58;56.20
38466;BME280;24244;51.950;5.902;2022-09-04T11:09:13;101651.44;;;25.60;56.12
38466;BME280;24244;51.950;5.902;2022-09-04T11:11:56;101649.84;;;25.64;55.93
38466;BME280;24244;51.950;5.902;2022-09-04T11:14:32;101646.31;;;25.68;55.72
38466;BME280;24244;51.950;5.902;2022-09-04T11:17:07;101648.22;;;25.73;55.73
38466;BME280;24244;51.950;5.902;2022-09-04T11:19:44;101646.63;;;25.77;55.56
38466;BME280;24244;51.950;5.902;2022-09-04T11:22:35;101642.84;;;25.83;55.44
38466;BME280;24244;51.950;5.902;2022-09-04T11:25:18;101643.41;;;25.90;55.07
38466;BME280;24244;51.950;5.902;2022-09-04T11:30:30;101645.94;;;26.07;54.51
38466;BME280;24244;51.950;5.902;2022-09-04T11:35:53;101649.22;;;26.14;54.20
38466;BME280;24244;51.950;5.902;2022-09-04T11:41:29;101639.97;;;26.20;54.28
38466;BME280;24244;51.950;5.902;2022-09-04T11:44:10;101641.91;;;26.25;54.13
38466;BME280;24244;51.950;5.902;2022-09-04T11:46:50;101648.19;;;26.30;54.04
38466;BME280;24244;51.950;5.902;2022-09-04T11:49:47;101643.59;;;26.36;53.62
38466;BME280;24244;51.950;5.902;2022-09-04T11:52:23;101652.28;;;26.38;53.31
38466;BME280;24244;51.950;5.902;2022-09-04T11:54:55;101647.66;;;26.38;53.54
38466;BME280;24244;51.950;5.902;2022-09-04T11:57:27;101644.66;;;26.40;53.57
38466;BME280;24244;51.950;5.902;2022-09-04T12:00:05;101647.66;;;26.43;53.53
38466;BME280;24244;51.950;5.902;2022-09-04T12:02:45;101649.88;;;26.46;53.42
38466;BME280;24244;51.950;5.902;2022-09-04T12:05:18;101642.75;;;26.50;53.21
38466;BME280;24244;51.950;5.902;2022-09-04T12:08:07;101645.22;;;26.52;53.13
38466;BME280;24244;51.950;5.902;2022-09-04T12:10:44;101650.94;;;26.50;53.12
38466;BME280;24244;51.950;5.902;2022-09-04T12:13:23;101654.78;;;26.49;53.10
38466;BME280;24244;51.950;5.902;2022-09-04T12:18:46;101658.88;;;26.52;52.92
38466;BME280;24244;51.950;5.902;2022-09-04T12:21:29;101659.69;;;26.52;52.95
38466;BME280;24244;51.950;5.902;2022-09-04T12:32:35;101646.59;;;26.55;52.79
38466;BME280;24244;51.950;5.902;2022-09-04T12:38:01;101649.88;;;26.57;52.65
38466;BME280;24244;51.950;5.902;2022-09-04T12:40:31;101647.97;;;26.57;52.67
38466;BME280;24244;51.950;5.902;2022-09-04T12:42:59;101656.94;;;26.58;52.61
38466;BME280;24244;51.950;5.902;2022-09-04T12:45:32;101660.25;;;26.60;52.50
38466;BME280;24244;51.950;5.902;2022-09-04T12:48:06;101649.88;;;26.62;52.46
38466;BME280;24244;51.950;5.902;2022-09-04T12:50:37;101652.06;;;26.65;52.48
38466;BME280;24244;51.950;5.902;2022-09-04T12:53:22;101659.19;;;26.71;52.20
38466;BME280;24244;51.950;5.902;2022-09-04T12:55:52;101648.25;;;26.76;52.22
38466;BME280;24244;51.950;5.902;2022-09-04T12:58:24;101652.06;;;26.80;51.98
38466;BME280;24244;51.950;5.902;2022-09-04T13:00:58;101653.69;;;26.86;52.01
38466;BME280;24244;51.950;5.902;2022-09-04T13:03:29;101661.66;;;26.93;51.87
38466;BME280;24244;51.950;5.902;2022-09-04T13:06:06;101663.81;;;27.01;51.51
38466;BME280;24244;51.950;5.902;2022-09-04T13:08:39;101656.75;;;27.05;51.36
38466;BME280;24244;51.950;5.902;2022-09-04T13:11:12;101660.53;;;27.09;51.56
38466;BME280;24244;51.950;5.902;2022-09-04T13:13:45;101659.19;;;27.11;51.30
38466;BME280;24244;51.950;5.902;2022-09-04T13:16:16;101664.91;;;27.15;51.11
38466;BME280;24244;51.950;5.902;2022-09-04T13:18:47;101660.00;;;27.17;51.25
38466;BME280;24244;51.950;5.902;2022-09-04T13:21:25;101666.81;;;27.19;51.25
38466;BME280;24244;51.950;5.902;2022-09-04T13:23:56;101664.09;;;27.19;51.21
38466;BME280;24244;51.950;5.902;2022-09-04T13:26:30;101662.19;;;27.20;51.06
38466;BME280;24244;51.950;5.902;2022-09-04T13:29:04;101670.06;;;27.21;51.00
38466;BME280;24244;51.950;5.902;2022-09-04T13:31:45;101675.53;;;27.21;51.06
38466;BME280;24244;51.950;5.902;2022-09-04T13:34:18;101670.06;;;27.21;51.01
38466;BME280;24244;51.950;5.902;2022-09-04T13:36:51;101665.44;;;27.22;50.80
38466;BME280;24244;51.950;5.902;2022-09-04T13:39:24;101662.72;;;27.22;50.99
38466;BME280;24244;51.950;5.902;2022-09-04T13:42:04;101658.88;;;27.23;50.69
38466;BME280;24244;51.950;5.902;2022-09-04T13:44:37;101660.81;;;27.22;51.00
38466;BME280;24244;51.950;5.902;2022-09-04T13:47:08;101659.16;;;27.21;51.08
38466;BME280;24244;51.950;5.902;2022-09-04T13:49:37;101659.72;;;27.23;50.86
38466;BME280;24244;51.950;5.902;2022-09-04T13:52:07;101660.25;;;27.25;50.71
38466;BME280;24244;51.950;5.902;2022-09-04T13:54:35;101656.69;;;27.30;50.76
38466;BME280;24244;51.950;5.902;2022-09-04T13:57:04;101659.69;;;27.34;50.57
38466;BME280;24244;51.950;5.902;2022-09-04T13:59:32;101661.59;;;27.38;50.34
38466;BME280;24244;51.950;5.902;2022-09-04T14:02:00;101667.59;;;27.40;50.14
38466;BME280;24244;51.950;5.902;2022-09-04T14:04:30;101668.69;;;27.44;49.90
38466;BME280;24244;51.950;5.902;2022-09-04T14:07:00;101663.50;;;27.48;50.10
38466;BME280;24244;51.950;5.902;2022-09-04T14:09:31;101668.38;;;27.51;49.70
38466;BME280;24244;51.950;5.902;2022-09-04T14:12:05;101671.44;;;27.54;49.81
38466;BME280;24244;51.950;5.902;2022-09-04T14:17:26;101662.66;;;27.62;49.64
38466;BME280;24244;51.950;5.902;2022-09-04T14:19:53;101664.81;;;27.65;49.75
38466;BME280;24244;51.950;5.902;2022-09-04T14:22:36;101663.19;;;27.70;49.31
38466;BME280;24244;51.950;5.902;2022-09-04T14:25:07;101668.63;;;27.75;49.29
38466;BME280;24244;51.950;5.902;2022-09-04T14:27:37;101670.28;;;27.76;48.77
38466;BME280;24244;51.950;5.902;2022-09-04T14:30:04;101664.81;;;27.76;48.74
38466;BME280;24244;51.950;5.902;2022-09-04T14:32:34;101666.44;;;27.77;48.73
38466;BME280;24244;51.950;5.902;2022-09-04T14:35:07;101668.09;;;27.78;48.65
38466;BME280;24244;51.950;5.902;2022-09-04T14:37:47;101666.13;;;27.78;48.71
38466;BME280;24244;51.950;5.902;2022-09-04T14:40:14;101663.97;;;27.80;48.49
38466;BME280;24244;51.950;5.902;2022-09-04T14:42:43;101657.41;;;27.81;48.63
38466;BME280;24244;51.950;5.902;2022-09-04T14:45:17;101661.50;;;27.84;48.43
38466;BME280;24244;51.950;5.902;2022-09-04T14:47:44;101661.19;;;27.85;48.50
38466;BME280;24244;51.950;5.902;2022-09-04T14:50:12;101652.72;;;27.87;47.81
38466;BME280;24244;51.950;5.902;2022-09-04T14:52:40;101660.91;;;27.87;47.89
38466;BME280;24244;51.950;5.902;2022-09-04T14:55:07;101652.72;;;27.87;47.91
38466;BME280;24244;51.950;5.902;2022-09-04T14:57:37;101663.38;;;27.88;47.81
38466;BME280;24244;51.950;5.902;2022-09-04T15:00:08;101657.91;;;27.88;47.65
38466;BME280;24244;51.950;5.902;2022-09-04T15:02:35;101660.38;;;27.90;47.91
38466;BME280;24244;51.950;5.902;2022-09-04T15:05:05;101652.41;;;27.93;47.73
38466;BME280;24244;51.950;5.902;2022-09-04T15:07:48;101655.97;;;27.94;47.21
38466;BME280;24244;51.950;5.902;2022-09-04T15:10:18;101657.06;;;27.93;47.45
38466;BME280;24244;51.950;5.902;2022-09-04T15:12:44;101654.31;;;27.93;47.24
38466;BME280;24244;51.950;5.902;2022-09-04T15:15:15;101656.78;;;27.94;47.39
38466;BME280;24244;51.950;5.902;2022-09-04T15:17:44;101652.13;;;27.95;47.14
38466;BME280;24244;51.950;5.902;2022-09-04T15:20:17;101655.41;;;27.97;47.17
38466;BME280;24244;51.950;5.902;2022-09-04T15:22:46;101654.84;;;28.00;47.13
38466;BME280;24244;51.950;5.902;2022-09-04T15:25:28;101648.28;;;28.01;46.88
38466;BME280;24244;51.950;5.902;2022-09-04T15:27:57;101655.38;;;28.02;46.53
38466;BME280;24244;51.950;5.902;2022-09-04T15:30:27;101655.38;;;28.02;46.52